createdAt,value
2023-04-02T00:00:36.944Z,89.17
2023-04-02T00:03:08.564Z,89.21
2023-04-02T00:05:55.857Z,89.38
2023-04-02T00:08:38.982Z,88.61
2023-04-02T00:11:06.832Z,89.56
2023-04-02T00:13:35.574Z,88.83
2023-04-02T00:16:05.629Z,88.52
2023-04-02T00:18:34.056Z,88.69
2023-04-02T00:21:07.751Z,88.79
2023-04-02T00:23:38.641Z,88.26
2023-04-02T00:26:21.660Z,88.24
2023-04-02T00:28:48.271Z,88.54
2023-04-02T00:31:17.262Z,89.15
2023-04-02T00:33:44.106Z,88.25
2023-04-02T00:36:10.784Z,88.36
2023-04-02T00:38:38.429Z,88.54
2023-04-02T00:41:07.667Z,88.49
2023-04-02T00:43:39.680Z,87.45
2023-04-02T00:46:15.094Z,87.85
2023-04-02T00:48:57.621Z,87.71
2023-04-02T00:51:29.774Z,87.89
2023-04-02T00:54:00.823Z,88.31
2023-04-02T00:56:40.414Z,88.13
2023-04-02T00:59:26.490Z,87.83
2023-04-02T01:02:22.500Z,88.03
2023-04-02T01:05:11.317Z,88.55
2023-04-02T01:07:49.459Z,88.38
2023-04-02T01:10:34.648Z,87.97
2023-04-02T01:13:16.485Z,87.99
2023-04-02T01:16:04.746Z,88.20
2023-04-02T01:18:42.361Z,88.48
2023-04-02T01:21:37.179Z,88.21
2023-04-02T01:24:05.852Z,88.14
2023-04-02T01:26:57.632Z,88.33
2023-04-02T01:29:35.950Z,87.89
2023-04-02T01:32:10.318Z,88.07
2023-04-02T01:34:38.065Z,87.32
2023-04-02T01:37:27.878Z,87.05
2023-04-02T01:40:19.993Z,87.81
2023-04-02T01:42:57.801Z,87.20
2023-04-02T01:45:25.002Z,86.71
2023-04-02T01:47:51.776Z,87.17
2023-04-02T01:50:38.476Z,87.25
2023-04-02T01:53:08.554Z,86.62
2023-04-02T01:55:40.322Z,87.05
2023-04-02T01:58:08.879Z,86.88
2023-04-02T02:00:41.490Z,86.75
2023-04-02T02:03:10.136Z,86.65
2023-04-02T02:05:37.444Z,86.82
2023-04-02T02:08:05.928Z,86.76
2023-04-02T02:10:39.149Z,86.37
2023-04-02T02:13:05.684Z,86.34
2023-04-02T02:15:34.362Z,86.72
2023-04-02T02:18:05.918Z,86.55
2023-04-02T02:20:34.408Z,86.83
2023-04-02T02:23:03.872Z,87.10
2023-04-02T02:25:36.459Z,86.14
2023-04-02T02:28:08.228Z,86.92
2023-04-02T02:30:41.898Z,86.18
2023-04-02T02:33:31.082Z,86.48
2023-04-02T02:36:10.463Z,86.31
2023-04-02T02:38:49.493Z,87.02
2023-04-02T02:41:45.302Z,86.89
2023-04-02T02:44:20.768Z,86.00
2023-04-02T02:46:53.715Z,85.88
2023-04-02T02:49:26.612Z,85.79
2023-04-02T02:51:57.934Z,85.81
2023-04-02T02:54:26.352Z,85.36
2023-04-02T02:57:01.411Z,85.84
2023-04-02T02:59:30.554Z,85.92
2023-04-02T03:01:57.220Z,85.80
2023-04-02T03:04:25.028Z,86.77
2023-04-02T03:06:58.048Z,84.92
2023-04-02T03:09:45.816Z,84.77
2023-04-02T03:12:31.211Z,85.05
2023-04-02T03:15:06.511Z,84.59
2023-04-02T03:17:39.724Z,84.37
2023-04-02T03:20:23.088Z,85.23
2023-04-02T03:23:02.641Z,85.50
2023-04-02T03:25:38.693Z,85.33
2023-04-02T03:28:07.894Z,85.27
2023-04-02T03:30:38.688Z,85.29
2023-04-02T03:33:13.853Z,84.96
2023-04-02T03:35:52.601Z,85.00
2023-04-02T03:38:25.367Z,83.87
2023-04-02T03:41:10.108Z,84.42
2023-04-02T03:43:58.172Z,84.56
2023-04-02T03:46:57.678Z,83.72
2023-04-02T03:49:55.026Z,83.44
2023-04-02T03:52:29.732Z,82.42
2023-04-02T03:54:59.111Z,82.40
2023-04-02T03:57:43.981Z,81.92
2023-04-02T04:00:35.641Z,81.48
2023-04-02T04:03:27.004Z,81.90
2023-04-02T04:06:00.259Z,82.04
2023-04-02T04:08:50.591Z,80.74
2023-04-02T04:11:22.778Z,81.69
2023-04-02T04:14:10.090Z,81.66
2023-04-02T04:16:55.243Z,81.10
2023-04-02T04:19:46.188Z,80.87
2023-04-02T04:22:30.492Z,80.93
2023-04-02T04:24:59.066Z,80.64
2023-04-02T04:28:07.842Z,79.54
2023-04-02T04:31:09.420Z,80.02
2023-04-02T04:33:44.269Z,80.87
2023-04-02T04:36:28.729Z,80.01
2023-04-02T04:38:59.511Z,79.46
2023-04-02T04:41:34.216Z,79.69
2023-04-02T04:44:39.458Z,79.07
2023-04-02T04:47:18.204Z,79.90
2023-04-02T04:50:33.060Z,79.11
2023-04-02T04:53:13.911Z,79.03
2023-04-02T04:55:44.170Z,79.49
2023-04-02T04:58:37.513Z,79.08
2023-04-02T05:01:04.219Z,78.62
2023-04-02T05:03:37.927Z,77.32
2023-04-02T05:06:13.690Z,77.39
2023-04-02T05:08:45.459Z,77.65
2023-04-02T05:11:21.142Z,76.60
2023-04-02T05:13:58.032Z,77.11
2023-04-02T05:16:27.620Z,77.66
2023-04-02T05:19:01.140Z,76.84
2023-04-02T05:21:27.679Z,77.36
2023-04-02T05:23:54.172Z,77.80
2023-04-02T05:26:37.433Z,77.35
2023-04-02T05:29:13.578Z,77.53
2023-04-02T05:31:56.057Z,77.60
2023-04-02T05:34:28.495Z,77.99
2023-04-02T05:36:55.734Z,77.22
2023-04-02T05:39:24.648Z,78.26
2023-04-02T05:42:14.933Z,78.01
2023-04-02T05:45:04.859Z,78.63
2023-04-02T05:47:33.460Z,77.93
2023-04-02T05:50:10.060Z,78.15
2023-04-02T05:52:42.788Z,76.96
2023-04-02T05:55:12.403Z,76.19
2023-04-02T05:57:53.063Z,76.69
2023-04-02T06:00:37.491Z,74.59
2023-04-02T06:03:14.016Z,75.46
2023-04-02T06:05:46.069Z,75.58
2023-04-02T06:08:22.736Z,76.27
2023-04-02T06:10:57.350Z,75.51
2023-04-02T06:13:24.232Z,75.17
2023-04-02T06:15:51.098Z,75.63
2023-04-02T06:18:24.393Z,74.14
2023-04-02T06:20:51.658Z,74.19
2023-04-02T06:23:37.235Z,74.73
2023-04-02T06:26:25.110Z,73.10
2023-04-02T06:29:02.400Z,73.93
2023-04-02T06:31:38.223Z,73.12
2023-04-02T06:34:07.747Z,72.70
2023-04-02T06:36:34.838Z,73.22
2023-04-02T06:39:07.923Z,72.93
2023-04-02T06:41:34.592Z,72.66
2023-04-02T06:44:22.881Z,72.94
2023-04-02T06:47:00.681Z,73.07
2023-04-02T06:49:47.036Z,72.16
2023-04-02T06:52:26.214Z,73.13
2023-04-02T06:54:53.246Z,73.16
2023-04-02T06:57:23.269Z,73.60
2023-04-02T06:59:50.111Z,73.56
2023-04-02T07:02:31.178Z,73.80
2023-04-02T07:05:03.479Z,74.70
2023-04-02T07:07:30.170Z,73.31
2023-04-02T07:09:57.611Z,73.29
2023-04-02T07:12:25.206Z,72.60
2023-04-02T07:14:52.441Z,72.47
2023-04-02T07:17:20.360Z,71.98
2023-04-02T07:19:49.819Z,72.45
2023-04-02T07:22:18.775Z,71.90
2023-04-02T07:24:46.317Z,71.15
2023-04-02T07:27:14.640Z,71.42
2023-04-02T07:29:44.553Z,71.30
2023-04-02T07:32:13.032Z,71.32
2023-04-02T07:34:41.071Z,70.71
2023-04-02T07:37:08.147Z,71.88
2023-04-02T07:39:37.795Z,70.76
2023-04-02T07:42:05.576Z,71.61
2023-04-02T07:44:32.263Z,71.68
2023-04-02T07:46:59.066Z,72.18
2023-04-02T07:49:29.032Z,71.85
2023-04-02T07:51:55.778Z,72.53
2023-04-02T07:54:22.534Z,71.76
2023-04-02T07:56:49.280Z,71.82
2023-04-02T07:59:18.912Z,71.70
2023-04-02T08:01:45.840Z,72.02
2023-04-02T08:04:21.361Z,71.55
2023-04-02T08:06:50.327Z,71.93
2023-04-02T08:09:17.244Z,70.59
2023-04-02T08:11:44.180Z,70.60
2023-04-02T08:14:11.233Z,69.60
2023-04-02T08:16:49.965Z,69.22
2023-04-02T08:19:17.233Z,69.58
2023-04-02T08:21:44.559Z,70.61
2023-04-02T08:24:11.182Z,70.85
2023-04-02T08:26:40.501Z,70.06
2023-04-02T08:29:07.162Z,70.65
2023-04-02T08:31:33.734Z,70.15
2023-04-02T08:34:01.661Z,70.40
2023-04-02T08:36:33.438Z,69.96
2023-04-02T08:39:01.206Z,69.01
2023-04-02T08:41:36.650Z,69.28
2023-04-02T08:44:19.409Z,68.62
2023-04-02T08:46:52.471Z,67.70
2023-04-02T08:49:31.264Z,66.95
2023-04-02T08:51:57.900Z,66.75
2023-04-02T08:54:29.388Z,65.38
2023-04-02T08:57:07.543Z,64.92
2023-04-02T08:59:37.796Z,66.10
2023-04-02T09:02:13.387Z,65.87
2023-04-02T09:04:41.691Z,63.87
2023-04-02T09:07:14.476Z,63.90
2023-04-02T09:09:41.586Z,63.24
2023-04-02T09:12:20.002Z,63.10
2023-04-02T09:14:52.776Z,61.41
2023-04-02T09:17:24.375Z,63.42
2023-04-02T09:19:56.219Z,63.75
2023-04-02T09:22:31.763Z,64.93
2023-04-02T09:25:01.543Z,65.13
2023-04-02T09:27:31.900Z,64.69
2023-04-02T09:30:20.565Z,65.08
2023-04-02T09:32:55.470Z,64.99
2023-04-02T09:35:26.996Z,64.94
2023-04-02T09:38:32.743Z,65.96
2023-04-02T09:41:01.499Z,66.58
2023-04-02T09:43:40.052Z,66.33
2023-04-02T09:46:23.788Z,66.68
2023-04-02T09:48:58.583Z,66.28
2023-04-02T09:51:28.532Z,66.33
2023-04-02T09:54:04.451Z,66.19
2023-04-02T09:56:36.732Z,65.71
2023-04-02T09:59:12.497Z,65.80
2023-04-02T10:02:23.388Z,65.60
2023-04-02T10:04:51.096Z,65.15
2023-04-02T10:07:36.168Z,63.29
2023-04-02T10:10:21.386Z,63.98
2023-04-02T10:13:02.418Z,63.72
2023-04-02T10:15:49.300Z,64.28
2023-04-02T10:18:28.597Z,64.76
2023-04-02T10:20:57.358Z,65.05
2023-04-02T10:23:28.242Z,65.52
2023-04-02T10:26:04.023Z,65.05
2023-04-02T10:28:42.744Z,66.44
2023-04-02T10:31:22.852Z,66.45
2023-04-02T10:33:53.643Z,66.08
2023-04-02T10:36:35.560Z,65.88
2023-04-02T10:39:13.027Z,66.76
2023-04-02T10:42:09.493Z,64.81
2023-04-02T10:44:50.836Z,65.11
2023-04-02T10:47:42.444Z,65.25
2023-04-02T10:50:26.981Z,64.57
2023-04-02T10:53:09.023Z,64.65
2023-04-02T10:55:43.284Z,63.96
2023-04-02T10:58:31.285Z,63.81
2023-04-02T11:01:21.077Z,63.43
2023-04-02T11:03:57.839Z,63.81
2023-04-02T11:06:31.225Z,64.26
2023-04-02T11:09:04.936Z,64.15
2023-04-02T11:11:38.674Z,63.93
2023-04-02T11:14:21.044Z,61.57
2023-04-02T11:16:52.300Z,63.14
2023-04-02T11:19:33.211Z,61.99
2023-04-02T11:22:03.189Z,62.49
2023-04-02T11:24:32.958Z,62.05
2023-04-02T11:27:12.346Z,61.47
2023-04-02T11:29:47.973Z,61.09
2023-04-02T11:32:29.854Z,60.98
2023-04-02T11:35:06.673Z,60.88
2023-04-02T11:37:46.112Z,60.38
2023-04-02T11:40:13.915Z,60.11
2023-04-02T11:42:45.289Z,60.59
2023-04-02T11:45:24.105Z,59.79
2023-04-02T11:47:59.796Z,61.36
2023-04-02T11:50:34.033Z,58.56
2023-04-02T11:53:05.570Z,59.91
2023-04-02T11:55:34.525Z,59.78
2023-04-02T11:58:13.396Z,58.53
2023-04-02T12:00:45.826Z,59.61
2023-04-02T12:03:49.248Z,59.56
2023-04-02T12:06:31.078Z,60.50
2023-04-02T12:09:16.656Z,59.87
2023-04-02T12:11:43.450Z,59.33
2023-04-02T12:14:47.432Z,58.25
2023-04-02T12:17:38.213Z,57.40
2023-04-02T12:20:09.168Z,57.66
2023-04-02T12:22:41.000Z,58.18
2023-04-02T12:25:31.498Z,56.32
2023-04-02T12:28:20.029Z,56.34
2023-04-02T12:30:48.480Z,57.33
2023-04-02T12:33:27.886Z,57.44
2023-04-02T12:36:00.242Z,57.23
2023-04-02T12:38:31.072Z,56.74
2023-04-02T12:41:03.774Z,56.76
2023-04-02T12:43:39.945Z,56.74
2023-04-02T12:46:08.640Z,56.89
2023-04-02T12:48:36.579Z,56.97
2023-04-02T12:51:04.289Z,56.70
2023-04-02T12:53:41.559Z,56.86
2023-04-02T12:56:18.448Z,57.77
2023-04-02T12:58:53.558Z,57.60
2023-04-02T13:01:27.585Z,57.77
2023-04-02T13:04:14.651Z,57.27
2023-04-02T13:06:47.436Z,57.62
2023-04-02T13:09:36.294Z,58.38
2023-04-02T13:12:03.366Z,58.75
2023-04-02T13:14:31.006Z,60.01
2023-04-02T13:16:57.611Z,59.84
2023-04-02T13:19:28.235Z,60.23
2023-04-02T13:21:57.045Z,59.07
2023-04-02T13:24:26.642Z,59.43
2023-04-02T13:26:59.130Z,59.47
2023-04-02T13:29:36.788Z,59.54
2023-04-02T13:32:12.133Z,59.38
2023-04-02T13:34:38.742Z,59.51
2023-04-02T13:37:05.439Z,59.41
2023-04-02T13:39:32.010Z,58.90
2023-04-02T13:42:02.798Z,58.25
2023-04-02T13:44:31.621Z,59.15
2023-04-02T13:46:59.336Z,58.84
2023-04-02T13:49:27.528Z,59.50
2023-04-02T13:52:00.867Z,59.85
2023-04-02T13:54:34.943Z,59.25
2023-04-02T13:57:02.156Z,58.97
2023-04-02T13:59:28.876Z,58.94
2023-04-02T14:01:59.653Z,58.79
2023-04-02T14:04:30.076Z,58.34
2023-04-02T14:07:16.881Z,57.83
2023-04-02T14:10:07.953Z,59.15
2023-04-02T14:12:57.466Z,59.14
2023-04-02T14:15:33.194Z,58.66
2023-04-02T14:18:56.961Z,58.14
2023-04-02T14:21:47.982Z,55.86
2023-04-02T14:24:20.779Z,55.69
2023-04-02T14:27:06.668Z,56.04
2023-04-02T14:29:41.996Z,55.83
2023-04-02T14:32:17.915Z,56.33
2023-04-02T14:34:50.588Z,56.56
2023-04-02T14:37:20.099Z,56.70
2023-04-02T14:39:52.841Z,56.72
2023-04-02T14:42:25.621Z,55.25
2023-04-02T14:45:04.365Z,55.90
2023-04-02T14:47:38.129Z,55.92
2023-04-02T14:50:20.394Z,55.49
2023-04-02T14:52:54.073Z,56.16
2023-04-02T14:55:51.833Z,56.35
2023-04-02T14:58:28.065Z,56.14
2023-04-02T15:01:26.402Z,55.98
2023-04-02T15:04:05.490Z,55.56
2023-04-02T15:06:38.769Z,55.66
2023-04-02T15:09:25.836Z,55.03
2023-04-02T15:12:02.332Z,56.33
2023-04-02T15:14:37.096Z,55.77
2023-04-02T15:17:04.119Z,56.49
2023-04-02T15:19:30.870Z,56.45
2023-04-02T15:22:09.558Z,54.99
2023-04-02T15:24:40.691Z,53.80
2023-04-02T15:27:24.487Z,53.18
2023-04-02T15:30:08.932Z,52.48
2023-04-02T15:32:39.086Z,54.42
2023-04-02T15:35:48.119Z,53.68
2023-04-02T15:38:24.803Z,53.82
2023-04-02T15:41:07.782Z,54.37
2023-04-02T15:43:37.322Z,54.62
2023-04-02T15:46:43.825Z,54.80
2023-04-02T15:49:38.683Z,54.82
2023-04-02T15:52:09.672Z,53.89
2023-04-02T15:55:10.932Z,54.38
2023-04-02T15:58:10.927Z,53.71
2023-04-02T16:00:58.739Z,54.53
2023-04-02T16:03:31.317Z,53.21
2023-04-02T16:06:23.570Z,53.11
2023-04-02T16:09:19.741Z,51.95
2023-04-02T16:11:46.522Z,52.65
2023-04-02T16:14:22.852Z,50.47
2023-04-02T16:16:51.174Z,50.86
2023-04-02T16:19:42.180Z,50.70
2023-04-02T16:22:14.825Z,51.84
2023-04-02T16:24:41.526Z,51.06
2023-04-02T16:27:20.314Z,51.00
2023-04-02T16:29:57.767Z,50.54
2023-04-02T16:32:38.983Z,51.14
2023-04-02T16:35:43.001Z,50.85
2023-04-02T16:38:28.224Z,48.90
2023-04-02T16:41:27.720Z,49.98
2023-04-02T16:44:14.937Z,49.89
2023-04-02T16:47:04.230Z,49.81
2023-04-02T16:49:31.230Z,50.46
2023-04-02T16:52:11.852Z,50.63
2023-04-02T16:55:26.022Z,51.11
2023-04-02T16:58:18.084Z,51.47
2023-04-02T17:00:53.002Z,52.04
2023-04-02T17:03:44.815Z,52.86
2023-04-02T17:06:29.763Z,53.07
2023-04-02T17:09:16.029Z,54.10
2023-04-02T17:11:48.593Z,54.18
2023-04-02T17:14:29.951Z,54.43
2023-04-02T17:17:02.857Z,54.22
2023-04-02T17:19:31.174Z,54.27
2023-04-02T17:22:04.450Z,54.08
2023-04-02T17:24:39.099Z,53.26
2023-04-02T17:27:27.661Z,54.32
2023-04-02T17:30:01.366Z,54.05
2023-04-02T17:32:31.704Z,53.89
2023-04-02T17:35:17.793Z,52.93
2023-04-02T17:37:48.223Z,53.01
2023-04-02T17:40:26.477Z,52.21
2023-04-02T17:43:10.634Z,53.10
2023-04-02T17:45:48.221Z,53.21
2023-04-02T17:48:30.182Z,53.73
2023-04-02T17:51:25.799Z,53.33
2023-04-02T17:54:25.897Z,53.62
2023-04-02T17:57:07.799Z,53.45
2023-04-02T17:59:44.305Z,54.16
2023-04-02T18:02:23.020Z,54.64
2023-04-02T18:05:04.839Z,54.46
2023-04-02T18:07:45.768Z,54.74
2023-04-02T18:10:27.822Z,54.92
2023-04-02T18:13:15.188Z,55.86
2023-04-02T18:16:02.300Z,56.03
2023-04-02T18:18:34.914Z,56.59
2023-04-02T18:21:16.669Z,56.84
2023-04-02T18:23:59.824Z,57.01
2023-04-02T18:26:54.378Z,56.91
2023-04-02T18:29:35.685Z,57.61
2023-04-02T18:32:47.845Z,57.31
2023-04-02T18:35:25.001Z,57.66
2023-04-02T18:38:19.039Z,58.17
2023-04-02T18:41:23.646Z,58.47
2023-04-02T18:44:08.959Z,57.28
2023-04-02T18:46:41.789Z,57.79
2023-04-02T18:49:23.770Z,57.90
2023-04-02T18:51:55.849Z,57.91
2023-04-02T18:54:37.984Z,56.94
2023-04-02T18:57:22.178Z,56.94
2023-04-02T18:59:51.382Z,56.71
2023-04-02T19:02:21.146Z,57.41
2023-04-02T19:05:23.510Z,56.80
2023-04-02T19:07:55.518Z,57.65
2023-04-02T19:10:36.572Z,58.13
2023-04-02T19:13:11.545Z,57.84
2023-04-02T19:16:02.595Z,57.87
2023-04-02T19:18:52.916Z,58.52
2023-04-02T19:21:26.007Z,57.80
2023-04-02T19:27:33.808Z,56.99
2023-04-02T19:30:28.515Z,57.76
2023-04-02T19:33:17.344Z,56.74
2023-04-02T19:36:05.208Z,57.73
2023-04-02T19:38:43.621Z,57.91
2023-04-02T19:41:31.906Z,57.44
2023-04-02T19:44:04.623Z,57.78
2023-04-02T19:46:37.623Z,57.72
2023-04-02T19:49:20.118Z,57.88
2023-04-02T19:51:48.065Z,57.83
2023-04-02T19:54:15.089Z,57.01
2023-04-02T19:56:42.693Z,57.35
2023-04-02T19:59:18.028Z,57.42
2023-04-02T20:01:46.845Z,57.32
2023-04-02T20:04:21.958Z,57.50
2023-04-02T20:07:05.528Z,56.92
2023-04-02T20:09:38.058Z,56.81
2023-04-02T20:12:05.530Z,57.01
2023-04-02T20:14:32.137Z,57.35
2023-04-02T20:16:59.156Z,58.30
2023-04-02T20:19:26.113Z,58.63
2023-04-02T20:21:52.929Z,59.04
2023-04-02T20:24:19.692Z,59.07
2023-04-02T20:26:46.614Z,59.26
2023-04-02T20:29:13.282Z,59.07
2023-04-02T20:31:40.115Z,59.73
2023-04-02T20:34:08.662Z,59.80
2023-04-02T20:36:35.975Z,59.98
2023-04-02T20:39:03.631Z,60.51
2023-04-02T20:41:30.431Z,60.27
2023-04-02T20:43:57.480Z,60.14
2023-04-02T20:46:24.189Z,60.19
2023-04-02T20:48:51.075Z,60.55
2023-04-02T20:51:18.031Z,60.45
2023-04-02T20:53:44.760Z,60.72
2023-04-02T20:56:14.525Z,60.01
2023-04-02T20:58:42.445Z,60.82
2023-04-02T21:01:23.801Z,60.95
2023-04-02T21:03:55.424Z,61.62
2023-04-02T21:06:24.028Z,61.01
2023-04-02T21:08:51.620Z,61.09
2023-04-02T21:11:19.292Z,61.57
2023-04-02T21:13:46.129Z,61.58
2023-04-02T21:16:21.856Z,62.17
2023-04-02T21:18:50.930Z,62.39
2023-04-02T21:21:18.343Z,62.20
2023-04-02T21:23:45.377Z,62.60
2023-04-02T21:26:17.904Z,62.86
2023-04-02T21:28:45.890Z,62.45
2023-04-02T21:31:16.270Z,62.75
2023-04-02T21:33:48.099Z,63.04
2023-04-02T21:36:23.556Z,63.67
2023-04-02T21:39:05.224Z,64.00
2023-04-02T21:41:43.063Z,63.93
2023-04-02T21:44:13.611Z,64.24
2023-04-02T21:46:44.299Z,64.90
2023-04-02T21:49:13.121Z,65.35
2023-04-02T21:51:42.523Z,65.31
2023-04-02T21:54:09.616Z,65.51
2023-04-02T21:56:39.103Z,65.33
2023-04-02T21:59:07.025Z,65.47
2023-04-02T22:01:37.153Z,66.34
2023-04-02T22:04:05.643Z,67.18
2023-04-02T22:06:36.795Z,66.29
2023-04-02T22:09:07.649Z,66.87
2023-04-02T22:11:41.474Z,67.03
2023-04-02T22:14:08.402Z,67.50
2023-04-02T22:16:36.025Z,67.21
2023-04-02T22:19:06.995Z,67.61
2023-04-02T22:21:33.614Z,67.10
2023-04-02T22:24:04.138Z,67.72
2023-04-02T22:26:31.667Z,68.43
2023-04-02T22:28:58.931Z,68.19
2023-04-02T22:31:27.602Z,68.30
2023-04-02T22:33:55.476Z,68.99
2023-04-02T22:36:23.211Z,69.25
2023-04-02T22:38:51.856Z,69.50
2023-04-02T22:41:19.904Z,69.76
2023-04-02T22:43:46.477Z,69.98
2023-04-02T22:46:15.910Z,69.99
2023-04-02T22:48:43.008Z,70.22
2023-04-02T22:51:11.688Z,70.46
2023-04-02T22:53:39.091Z,69.97
2023-04-02T22:56:12.011Z,70.84
2023-04-02T22:58:38.934Z,70.43
2023-04-02T23:01:15.839Z,70.88
2023-04-02T23:03:42.754Z,70.87
2023-04-02T23:06:13.862Z,71.44
2023-04-02T23:08:41.029Z,71.53
2023-04-02T23:11:13.658Z,71.95
2023-04-02T23:13:40.892Z,71.24
2023-04-02T23:16:11.266Z,71.67
2023-04-02T23:18:39.238Z,71.68
2023-04-02T23:21:06.651Z,71.63
2023-04-02T23:23:33.880Z,72.93
2023-04-02T23:26:08.366Z,72.72
2023-04-02T23:28:36.650Z,72.29
2023-04-02T23:31:05.376Z,72.87
2023-04-02T23:33:32.169Z,72.34
2023-04-02T23:35:58.821Z,73.35
2023-04-02T23:38:26.545Z,73.52
2023-04-02T23:40:53.616Z,72.92
2023-04-02T23:43:20.250Z,73.16
2023-04-02T23:45:50.512Z,73.36
2023-04-02T23:48:17.460Z,72.74
2023-04-02T23:50:45.545Z,73.85
2023-04-02T23:53:13.256Z,73.51
2023-04-02T23:55:40.458Z,73.49
2023-04-02T23:58:07.118Z,74.05
